createdAt,value
2023-05-02T00:00:54.741Z,14.52
2023-05-02T00:03:27.771Z,12.88
2023-05-02T00:06:01.516Z,13.02
2023-05-02T00:08:34.518Z,13.95
2023-05-02T00:11:07.474Z,13.30
2023-05-02T00:13:40.433Z,13.17
2023-05-02T00:16:14.675Z,12.25
2023-05-02T00:18:47.628Z,12.98
2023-05-02T00:21:20.600Z,11.63
2023-05-02T00:23:53.508Z,11.43
2023-05-02T00:26:26.816Z,10.77
2023-05-02T00:29:00.675Z,11.23
2023-05-02T00:31:35.501Z,10.40
2023-05-02T00:34:08.489Z,10.98
2023-05-02T00:36:41.401Z,11.68
2023-05-02T00:39:14.345Z,10.63
2023-05-02T00:41:47.278Z,10.70
2023-05-02T00:44:20.208Z,11.43
2023-05-02T00:46:55.299Z,10.77
2023-05-02T00:49:28.468Z,10.73
2023-05-02T00:52:02.511Z,10.57
2023-05-02T00:54:35.553Z,10.87
2023-05-02T00:57:08.543Z,10.20
2023-05-02T00:59:41.502Z,10.93
2023-05-02T01:02:29.616Z,10.17
2023-05-02T01:05:12.617Z,11.13
2023-05-02T01:08:09.788Z,10.67
2023-05-02T01:10:54.324Z,10.57
2023-05-02T01:13:33.078Z,9.60
2023-05-02T01:16:08.885Z,10.20
2023-05-02T01:18:45.267Z,10.33
2023-05-02T01:21:18.460Z,10.13
2023-05-02T01:24:04.289Z,10.10
2023-05-02T01:27:02.600Z,10.07
2023-05-02T01:29:38.750Z,9.80
2023-05-02T01:32:13.380Z,9.67
2023-05-02T01:34:49.863Z,9.87
2023-05-02T01:37:25.284Z,9.97
2023-05-02T01:40:00.249Z,9.70
2023-05-02T01:42:37.448Z,9.63
2023-05-02T01:45:13.882Z,10.50
2023-05-02T01:47:48.793Z,9.83
2023-05-02T01:50:25.429Z,10.10
2023-05-02T01:53:01.190Z,10.73
2023-05-02T01:55:37.134Z,10.67
2023-05-02T01:58:11.856Z,11.17
2023-05-02T02:00:47.398Z,10.70
2023-05-02T02:03:22.238Z,11.10
2023-05-02T02:05:57.702Z,10.60
2023-05-02T02:08:30.672Z,10.90
2023-05-02T02:11:13.027Z,10.87
2023-05-02T02:13:51.160Z,11.30
2023-05-02T02:16:30.703Z,10.40
2023-05-02T02:19:08.756Z,10.97
2023-05-02T02:21:44.184Z,10.00
2023-05-02T02:24:19.861Z,9.20
2023-05-02T02:26:52.899Z,10.63
2023-05-02T02:29:25.854Z,10.43
2023-05-02T02:32:00.154Z,9.63
2023-05-02T02:34:33.259Z,9.57
2023-05-02T02:37:15.480Z,10.77
2023-05-02T02:40:01.944Z,10.17
2023-05-02T02:42:42.186Z,10.73
2023-05-02T02:45:28.340Z,10.00
2023-05-02T02:48:16.482Z,10.20
2023-05-02T02:51:15.966Z,9.97
2023-05-02T02:53:59.535Z,8.70
2023-05-02T02:56:39.252Z,9.33
2023-05-02T02:59:20.648Z,9.43
2023-05-02T03:02:03.621Z,9.63
2023-05-02T03:04:41.999Z,8.77
2023-05-02T03:07:15.014Z,9.40
2023-05-02T03:09:49.505Z,8.67
2023-05-02T03:12:22.745Z,10.13
2023-05-02T03:15:06.598Z,10.30
2023-05-02T03:17:39.596Z,9.03
2023-05-02T03:20:13.929Z,9.97
2023-05-02T03:22:46.915Z,8.87
2023-05-02T03:25:19.869Z,9.90
2023-05-02T03:27:54.032Z,9.67
2023-05-02T03:30:27.003Z,9.20
2023-05-02T03:33:00.555Z,10.53
2023-05-02T03:35:34.900Z,9.57
2023-05-02T03:38:07.793Z,10.10
2023-05-02T03:40:40.712Z,9.30
2023-05-02T03:43:13.647Z,10.33
2023-05-02T03:45:48.158Z,10.03
2023-05-02T03:48:21.774Z,9.43
2023-05-02T03:50:56.610Z,10.73
2023-05-02T03:53:30.539Z,10.40
2023-05-02T03:56:03.526Z,11.10
2023-05-02T03:58:37.262Z,11.13
2023-05-02T04:01:15.861Z,10.83
2023-05-02T04:03:48.892Z,11.10
2023-05-02T04:06:23.348Z,10.50
2023-05-02T04:08:57.834Z,10.20
2023-05-02T04:11:30.860Z,11.27
2023-05-02T04:14:04.823Z,11.30
2023-05-02T04:16:38.055Z,11.80
2023-05-02T04:19:11.887Z,11.70
2023-05-02T04:21:46.831Z,11.23
2023-05-02T04:24:19.781Z,11.33
2023-05-02T04:26:52.731Z,12.73
2023-05-02T04:29:25.810Z,13.00
2023-05-02T04:31:58.769Z,13.40
2023-05-02T04:34:31.758Z,12.53
2023-05-02T04:37:06.297Z,12.30
2023-05-02T04:39:39.276Z,13.47
2023-05-02T04:42:12.246Z,13.47
2023-05-02T04:44:45.191Z,12.70
2023-05-02T04:47:18.128Z,13.13
2023-05-02T04:49:51.054Z,13.10
2023-05-02T04:52:25.482Z,15.23
2023-05-02T04:54:58.423Z,15.97
2023-05-02T04:57:31.399Z,15.30
2023-05-02T05:00:05.676Z,13.57
2023-05-02T05:02:39.024Z,14.13
2023-05-02T05:05:12.175Z,14.33
2023-05-02T05:07:46.490Z,15.27
2023-05-02T05:10:19.442Z,15.20
2023-05-02T05:12:53.423Z,14.67
2023-05-02T05:15:27.316Z,14.63
2023-05-02T05:18:00.329Z,14.33
2023-05-02T05:20:33.533Z,15.57
2023-05-02T05:23:07.812Z,13.40
2023-05-02T05:25:42.318Z,15.47
2023-05-02T05:28:16.472Z,15.27
2023-05-02T05:30:49.389Z,14.27
2023-05-02T05:33:22.425Z,14.20
2023-05-02T05:35:55.426Z,11.47
2023-05-02T05:38:29.750Z,11.77
2023-05-02T05:41:02.905Z,12.07
2023-05-02T05:43:37.974Z,11.57
2023-05-02T05:46:11.283Z,11.85
2023-05-02T05:48:44.335Z,11.38
2023-05-02T05:51:17.383Z,10.20
2023-05-02T05:53:51.886Z,10.30
2023-05-02T05:56:24.868Z,10.63
2023-05-02T05:58:57.880Z,12.63
2023-05-02T06:01:31.430Z,11.60
2023-05-02T06:04:05.091Z,11.95
2023-05-02T06:06:38.307Z,11.07
2023-05-02T06:09:12.845Z,11.63
2023-05-02T06:11:46.242Z,10.10
2023-05-02T06:14:19.219Z,10.77
2023-05-02T06:16:52.247Z,10.70
2023-05-02T06:19:25.268Z,10.13
2023-05-02T06:21:58.255Z,10.30
2023-05-02T06:24:32.561Z,10.60
2023-05-02T06:27:05.609Z,9.82
2023-05-02T06:29:38.608Z,10.68
2023-05-02T06:32:11.545Z,10.68
2023-05-02T06:34:44.530Z,9.65
2023-05-02T06:37:17.498Z,10.70
2023-05-02T06:39:51.835Z,10.45
2023-05-02T06:42:25.049Z,10.65
2023-05-02T06:44:58.014Z,10.30
2023-05-02T06:47:30.991Z,50.17
2023-05-02T06:50:04.192Z,14.85
2023-05-02T06:52:37.175Z,19.70
2023-05-02T06:55:11.568Z,12.55
2023-05-02T06:57:44.681Z,10.80
2023-05-02T07:00:18.574Z,9.93
2023-05-02T07:02:51.557Z,13.85
2023-05-02T07:05:24.549Z,49.92
2023-05-02T07:07:57.476Z,46.15
2023-05-02T07:10:31.992Z,12.93
2023-05-02T07:13:05.002Z,11.35
2023-05-02T07:15:37.969Z,10.38
2023-05-02T07:18:11.030Z,10.90
2023-05-02T07:20:44.053Z,11.40
2023-05-02T07:23:16.976Z,10.93
2023-05-02T07:25:51.325Z,10.95
2023-05-02T07:28:24.242Z,10.13
2023-05-02T07:30:57.189Z,10.32
2023-05-02T07:33:30.469Z,10.65
2023-05-02T07:36:03.606Z,11.77
2023-05-02T07:38:36.585Z,10.75
2023-05-02T07:41:10.879Z,11.18
2023-05-02T07:43:43.844Z,10.85
2023-05-02T07:46:16.902Z,11.23
2023-05-02T07:48:49.860Z,11.43
2023-05-02T07:51:22.841Z,11.02
2023-05-02T07:53:58.431Z,11.35
2023-05-02T07:56:33.310Z,11.88
2023-05-02T07:59:06.238Z,12.27
2023-05-02T08:01:39.645Z,12.15
2023-05-02T08:04:13.148Z,12.85
2023-05-02T08:06:46.394Z,12.45
2023-05-02T08:09:19.424Z,13.60
2023-05-02T08:11:53.774Z,12.02
2023-05-02T08:14:26.718Z,12.27
2023-05-02T08:17:00.108Z,12.32
2023-05-02T08:19:33.123Z,12.07
2023-05-02T08:22:06.081Z,13.30
2023-05-02T08:24:39.086Z,12.90
2023-05-02T08:27:13.356Z,16.70
2023-05-02T08:29:46.289Z,13.43
2023-05-02T08:32:19.320Z,13.35
2023-05-02T08:34:55.918Z,13.23
2023-05-02T08:37:28.880Z,13.05
2023-05-02T08:40:02.652Z,12.20
2023-05-02T08:42:37.485Z,11.82
2023-05-02T08:45:15.576Z,13.30
2023-05-02T08:47:50.674Z,13.40
2023-05-02T08:50:24.254Z,12.70
2023-05-02T08:52:58.173Z,11.80
2023-05-02T08:55:31.353Z,13.23
2023-05-02T08:58:06.040Z,13.40
2023-05-02T09:00:41.546Z,12.48
2023-05-02T09:03:27.664Z,13.45
2023-05-02T09:06:08.036Z,12.88
2023-05-02T09:08:42.214Z,12.52
2023-05-02T09:11:16.104Z,12.85
2023-05-02T09:13:52.224Z,12.10
2023-05-02T09:16:27.469Z,13.73
2023-05-02T09:19:01.151Z,13.23
2023-05-02T09:21:40.024Z,13.52
2023-05-02T09:24:18.167Z,13.02
2023-05-02T09:27:02.732Z,11.23
2023-05-02T09:29:38.728Z,13.10
2023-05-02T09:32:11.842Z,13.70
2023-05-02T09:35:09.265Z,16.73
2023-05-02T09:37:42.192Z,14.95
2023-05-02T09:40:15.982Z,14.70
2023-05-02T09:42:49.036Z,15.10
2023-05-02T09:45:25.565Z,13.63
2023-05-02T09:48:03.840Z,13.30
2023-05-02T09:50:39.029Z,14.52
2023-05-02T09:53:12.014Z,14.88
2023-05-02T09:55:45.022Z,16.40
2023-05-02T09:58:23.392Z,14.00
2023-05-02T10:00:59.176Z,14.07
2023-05-02T10:03:32.465Z,14.45
2023-05-02T10:06:10.159Z,14.05
2023-05-02T10:08:45.324Z,15.27
2023-05-02T10:11:18.560Z,15.13
2023-05-02T10:13:52.011Z,13.15
2023-05-02T10:16:31.510Z,14.43
2023-05-02T10:19:10.785Z,14.57
2023-05-02T10:21:45.203Z,16.50
2023-05-02T10:24:18.926Z,14.85
2023-05-02T10:26:52.865Z,13.40
2023-05-02T10:29:29.146Z,13.30
2023-05-02T10:32:06.150Z,14.40
2023-05-02T10:34:41.886Z,13.90
2023-05-02T10:37:14.897Z,11.90
2023-05-02T10:39:47.973Z,13.85
2023-05-02T10:42:21.933Z,14.23
2023-05-02T10:44:55.091Z,13.63
2023-05-02T10:47:30.444Z,14.63
2023-05-02T10:50:05.281Z,14.80
2023-05-02T10:52:41.212Z,13.68
2023-05-02T10:55:22.541Z,13.07
2023-05-02T10:58:23.695Z,14.80
2023-05-02T11:01:42.134Z,14.55
2023-05-02T11:04:16.497Z,12.05
2023-05-02T11:07:21.081Z,10.95
2023-05-02T11:09:54.140Z,14.20
2023-05-02T11:12:46.683Z,14.68
2023-05-02T11:15:58.167Z,12.88
2023-05-02T11:19:02.070Z,12.10
2023-05-02T11:21:38.963Z,13.02
2023-05-02T11:24:39.374Z,12.25
2023-05-02T11:27:40.812Z,10.55
2023-05-02T11:30:14.168Z,11.77
2023-05-02T11:33:17.687Z,11.13
2023-05-02T11:35:51.144Z,11.20
2023-05-02T11:38:24.233Z,12.43
2023-05-02T11:40:59.964Z,11.93
2023-05-02T11:43:33.202Z,12.00
2023-05-02T11:46:08.275Z,13.13
2023-05-02T11:48:43.140Z,13.25
2023-05-02T11:51:24.237Z,12.65
2023-05-02T11:53:57.528Z,13.63
2023-05-02T11:56:30.515Z,12.25
2023-05-02T11:59:05.317Z,11.32
2023-05-02T12:01:38.314Z,12.15
2023-05-02T12:04:12.637Z,12.38
2023-05-02T12:06:56.820Z,9.77
2023-05-02T12:09:29.870Z,13.27
2023-05-02T12:12:03.260Z,12.57
2023-05-02T12:14:37.973Z,13.50
2023-05-02T12:17:11.779Z,13.63
2023-05-02T12:19:46.310Z,12.48
2023-05-02T12:22:19.437Z,10.95
2023-05-02T12:24:53.469Z,9.43
2023-05-02T12:27:27.324Z,9.18
2023-05-02T12:30:00.978Z,8.00
2023-05-02T12:32:35.876Z,7.82
2023-05-02T12:35:23.066Z,8.20
2023-05-02T12:37:57.075Z,9.85
2023-05-02T12:40:29.973Z,7.80
2023-05-02T12:43:06.197Z,8.45
2023-05-02T12:45:39.217Z,10.38
2023-05-02T12:48:26.429Z,10.35
2023-05-02T12:51:01.201Z,12.07
2023-05-02T12:53:42.132Z,15.68
2023-05-02T12:56:16.959Z,17.15
2023-05-02T12:58:50.902Z,16.60
2023-05-02T13:01:24.039Z,13.18
2023-05-02T13:03:57.069Z,13.52
2023-05-02T13:06:31.654Z,11.63
2023-05-02T13:09:05.072Z,12.15
2023-05-02T13:11:39.361Z,11.93
2023-05-02T13:14:12.345Z,9.73
2023-05-02T13:16:45.437Z,9.30
2023-05-02T13:19:18.511Z,8.23
2023-05-02T13:21:52.831Z,8.15
2023-05-02T13:24:25.958Z,17.20
2023-05-02T13:26:59.033Z,19.48
2023-05-02T13:29:32.021Z,21.10
2023-05-02T13:32:05.239Z,17.13
2023-05-02T13:34:38.441Z,19.30
2023-05-02T13:37:12.780Z,17.67
2023-05-02T13:39:45.956Z,15.98
2023-05-02T13:42:18.920Z,13.18
2023-05-02T13:44:52.167Z,11.85
2023-05-02T13:47:26.276Z,9.60
2023-05-02T13:49:59.553Z,9.63
2023-05-02T13:52:34.187Z,8.93
2023-05-02T13:55:08.170Z,10.55
2023-05-02T13:57:41.213Z,9.38
2023-05-02T14:00:16.176Z,9.48
2023-05-02T14:02:49.320Z,9.60
2023-05-02T14:05:22.714Z,9.82
2023-05-02T14:07:57.061Z,8.13
2023-05-02T14:10:30.051Z,8.07
2023-05-02T14:13:03.004Z,10.20
2023-05-02T14:15:37.493Z,10.32
2023-05-02T14:18:10.507Z,10.45
2023-05-02T14:20:43.743Z,10.40
2023-05-02T14:23:18.159Z,10.80
2023-05-02T14:25:51.185Z,9.82
2023-05-02T14:28:24.226Z,9.88
2023-05-02T14:30:57.400Z,7.97
2023-05-02T14:33:30.361Z,8.50
2023-05-02T14:36:03.823Z,7.90
2023-05-02T14:38:38.186Z,9.23
2023-05-02T14:41:11.449Z,8.90
2023-05-02T14:43:44.570Z,7.60
2023-05-02T14:46:17.594Z,9.07
2023-05-02T14:48:50.586Z,6.15
2023-05-02T14:51:23.563Z,7.35
2023-05-02T14:53:57.880Z,6.50
2023-05-02T14:56:31.103Z,7.68
2023-05-02T14:59:04.201Z,7.90
2023-05-02T15:01:37.521Z,7.22
2023-05-02T15:04:11.296Z,7.65
2023-05-02T15:06:44.548Z,6.45
2023-05-02T15:09:18.998Z,6.47
2023-05-02T15:11:51.977Z,6.60
2023-05-02T15:14:24.998Z,5.72
2023-05-02T15:16:58.068Z,6.53
2023-05-02T15:19:31.082Z,6.45
2023-05-02T15:22:04.148Z,5.78
2023-05-02T15:24:38.467Z,6.18
2023-05-02T15:27:11.940Z,6.50
2023-05-02T15:29:44.930Z,6.38
2023-05-02T15:32:18.146Z,6.00
2023-05-02T15:34:51.271Z,5.50
2023-05-02T15:37:24.232Z,6.15
2023-05-02T15:39:59.957Z,6.05
2023-05-02T15:42:36.919Z,6.97
2023-05-02T15:45:13.866Z,7.05
2023-05-02T15:47:46.894Z,6.35
2023-05-02T15:50:20.618Z,8.15
2023-05-02T15:52:54.430Z,7.22
2023-05-02T15:55:28.755Z,6.60
2023-05-02T15:58:01.833Z,7.53
2023-05-02T16:00:34.820Z,7.25
2023-05-02T16:03:07.837Z,7.68
2023-05-02T16:05:41.250Z,10.10
2023-05-02T16:08:14.295Z,8.80
2023-05-02T16:10:48.693Z,8.65
2023-05-02T16:13:22.242Z,9.48
2023-05-02T16:15:55.676Z,8.27
2023-05-02T16:18:28.950Z,9.23
2023-05-02T16:21:01.966Z,10.45
2023-05-02T16:23:34.950Z,10.00
2023-05-02T16:26:10.147Z,8.52
2023-05-02T16:28:43.153Z,9.38
2023-05-02T16:31:16.194Z,9.68
2023-05-02T16:33:49.256Z,10.43
2023-05-02T16:36:22.240Z,9.73
2023-05-02T16:38:55.252Z,9.95
2023-05-02T16:41:29.552Z,10.05
2023-05-02T16:44:02.540Z,9.15
2023-05-02T16:46:35.605Z,10.40
2023-05-02T16:49:08.722Z,9.57
2023-05-02T16:51:41.908Z,10.77
2023-05-02T16:54:14.976Z,10.20
2023-05-02T16:56:49.438Z,10.18
2023-05-02T16:59:22.449Z,9.98
2023-05-02T17:01:56.941Z,9.45
2023-05-02T17:04:30.311Z,9.07
2023-05-02T17:07:03.279Z,9.77
2023-05-02T17:09:36.979Z,9.85
2023-05-02T17:12:12.002Z,10.88
2023-05-02T17:14:44.998Z,9.73
2023-05-02T17:17:19.039Z,10.52
2023-05-02T17:19:52.249Z,11.20
2023-05-02T17:22:25.707Z,10.75
2023-05-02T17:24:58.856Z,10.40
2023-05-02T17:27:33.719Z,10.10
2023-05-02T17:30:08.513Z,9.13
2023-05-02T17:32:41.761Z,8.15
2023-05-02T17:35:16.267Z,8.45
2023-05-02T17:37:49.264Z,9.80
2023-05-02T17:40:22.647Z,10.68
2023-05-02T17:42:58.769Z,9.45
2023-05-02T17:45:31.976Z,8.80
2023-05-02T17:48:06.089Z,10.20
2023-05-02T17:50:39.437Z,10.77
2023-05-02T17:53:12.567Z,9.32
2023-05-02T17:55:45.760Z,9.30
2023-05-02T17:58:20.115Z,8.90
2023-05-02T18:00:53.081Z,7.47
2023-05-02T18:03:26.118Z,8.60
2023-05-02T18:05:59.194Z,8.73
2023-05-02T18:08:32.194Z,8.60
2023-05-02T18:11:05.377Z,8.93
2023-05-02T18:13:40.613Z,8.00
2023-05-02T18:16:14.724Z,7.97
2023-05-02T18:18:47.804Z,7.13
2023-05-02T18:21:25.817Z,7.78
2023-05-02T18:23:58.773Z,8.07
2023-05-02T18:26:31.963Z,7.90
2023-05-02T18:29:06.392Z,7.95
2023-05-02T18:31:40.359Z,8.40
2023-05-02T18:34:13.545Z,8.82
2023-05-02T18:36:46.534Z,8.52
2023-05-02T18:39:21.463Z,7.63
2023-05-02T18:41:54.480Z,8.25
2023-05-02T18:44:28.937Z,8.45
2023-05-02T18:47:02.023Z,8.90
2023-05-02T18:49:35.001Z,7.68
2023-05-02T18:52:07.991Z,8.90
2023-05-02T18:54:41.043Z,9.43
2023-05-02T18:57:14.375Z,8.20
2023-05-02T18:59:48.725Z,9.10
2023-05-02T19:02:22.553Z,8.73
2023-05-02T19:04:55.695Z,8.52
2023-05-02T19:07:28.801Z,8.52
2023-05-02T19:10:01.838Z,8.23
2023-05-02T19:12:34.897Z,8.35
2023-05-02T19:15:10.891Z,9.45
2023-05-02T19:17:44.323Z,19.55
2023-05-02T19:20:18.205Z,15.45
2023-05-02T19:22:52.858Z,12.25
2023-05-02T19:25:28.806Z,11.05
2023-05-02T19:28:01.779Z,10.18
2023-05-02T19:30:36.584Z,9.43
2023-05-02T19:33:09.810Z,9.20
2023-05-02T19:35:42.862Z,9.32
2023-05-02T19:38:15.810Z,9.00
2023-05-02T19:40:48.773Z,24.10
2023-05-02T19:43:21.738Z,30.92
2023-05-02T19:45:56.799Z,51.95
2023-05-02T19:48:29.896Z,36.53
2023-05-02T19:51:04.461Z,21.13
2023-05-02T19:53:38.673Z,17.02
2023-05-02T19:56:11.695Z,16.08
2023-05-02T19:58:44.707Z,15.50
2023-05-02T20:01:19.104Z,14.93
2023-05-02T20:03:52.186Z,14.40
2023-05-02T20:06:25.515Z,13.45
2023-05-02T20:08:58.599Z,11.52
2023-05-02T20:11:32.735Z,10.82
2023-05-02T20:14:05.747Z,11.60
2023-05-02T20:16:40.204Z,10.98
2023-05-02T20:19:14.113Z,10.52
2023-05-02T20:21:47.078Z,10.30
2023-05-02T20:24:20.065Z,9.60
2023-05-02T20:26:53.024Z,9.32
2023-05-02T20:29:26.166Z,9.38
2023-05-02T20:32:00.631Z,8.80
2023-05-02T20:34:36.210Z,9.18
2023-05-02T20:37:10.173Z,9.52
2023-05-02T20:39:43.146Z,9.13
2023-05-02T20:42:23.372Z,8.52
2023-05-02T20:44:57.722Z,8.93
2023-05-02T20:47:33.186Z,8.60
2023-05-02T20:50:08.437Z,8.48
2023-05-02T20:52:41.445Z,8.80
2023-05-02T20:55:14.437Z,8.77
2023-05-02T20:57:51.094Z,9.10
2023-05-02T21:00:24.355Z,9.20
2023-05-02T21:02:58.773Z,8.10
2023-05-02T21:05:31.771Z,8.68
2023-05-02T21:08:04.877Z,9.27
2023-05-02T21:10:37.870Z,8.82
2023-05-02T21:13:10.844Z,8.63
2023-05-02T21:15:44.049Z,10.45
2023-05-02T21:18:18.401Z,30.35
2023-05-02T21:20:51.393Z,13.30
2023-05-02T21:23:24.465Z,10.95
2023-05-02T21:25:57.587Z,10.52
2023-05-02T21:28:30.659Z,10.45
2023-05-02T21:31:03.871Z,11.00
2023-05-02T21:33:38.191Z,10.98
2023-05-02T21:36:12.140Z,10.93
2023-05-02T21:38:45.122Z,10.68
2023-05-02T21:41:18.298Z,10.68
2023-05-02T21:43:51.613Z,9.90
2023-05-02T21:46:24.633Z,10.30
2023-05-02T21:48:59.007Z,9.77
2023-05-02T21:51:34.016Z,10.48
2023-05-02T21:54:07.355Z,13.95
2023-05-02T21:56:40.299Z,11.25
2023-05-02T21:59:13.253Z,11.40
2023-05-02T22:01:46.224Z,11.82
2023-05-02T22:04:21.165Z,11.38
2023-05-02T22:06:54.241Z,10.80
2023-05-02T22:09:27.224Z,11.07
2023-05-02T22:12:00.292Z,12.93
2023-05-02T22:14:41.595Z,11.68
2023-05-02T22:17:18.883Z,11.65
2023-05-02T22:19:53.249Z,9.25
2023-05-02T22:22:26.301Z,9.65
2023-05-02T22:24:59.267Z,9.05
2023-05-02T22:27:32.238Z,9.00
2023-05-02T22:30:06.341Z,8.68
2023-05-02T22:32:39.372Z,8.67
2023-05-02T22:35:13.722Z,9.10
2023-05-02T22:37:46.656Z,8.93
2023-05-02T22:40:19.983Z,8.57
2023-05-02T22:42:53.047Z,8.20
2023-05-02T22:45:27.088Z,8.17
2023-05-02T22:48:00.128Z,7.40
2023-05-02T22:50:34.788Z,7.83
2023-05-02T22:53:09.415Z,7.70
2023-05-02T22:55:42.660Z,7.53
2023-05-02T22:58:15.916Z,7.60
2023-05-02T23:00:48.965Z,7.93
2023-05-02T23:03:22.336Z,7.97
2023-05-02T23:05:56.870Z,8.00
2023-05-02T23:08:29.895Z,8.47
2023-05-02T23:11:02.853Z,7.37
2023-05-02T23:13:37.126Z,8.07
2023-05-02T23:16:10.154Z,7.87
2023-05-02T23:18:43.165Z,9.00
2023-05-02T23:21:18.120Z,8.70
2023-05-02T23:23:51.059Z,8.10
2023-05-02T23:26:23.987Z,8.30
2023-05-02T23:28:57.049Z,7.70
2023-05-02T23:31:30.151Z,8.40
2023-05-02T23:34:03.229Z,8.33
2023-05-02T23:36:37.667Z,7.20
2023-05-02T23:39:10.668Z,8.20
2023-05-02T23:41:43.732Z,8.27
2023-05-02T23:44:16.653Z,8.30
2023-05-02T23:46:50.335Z,8.10
2023-05-02T23:49:23.345Z,8.43
2023-05-02T23:51:57.643Z,8.47
2023-05-02T23:54:31.890Z,8.30
2023-05-02T23:57:06.367Z,7.87
2023-05-02T23:59:39.427Z,8.93
